createdAt,value
2022-09-11T00:02:59.646Z,1.45
2022-09-11T00:09:42.063Z,2.65
2022-09-11T00:16:29.348Z,2.33
2022-09-11T00:23:11.745Z,2.83
2022-09-11T00:29:54.284Z,1.60
2022-09-11T00:36:41.104Z,1.50
2022-09-11T00:43:23.837Z,1.40
2022-09-11T00:50:19.347Z,1.90
2022-09-11T00:57:05.123Z,1.50
2022-09-11T01:03:47.531Z,1.55
2022-09-11T01:11:01.341Z,1.75
2022-09-11T01:18:02.410Z,1.77
2022-09-11T01:25:30.150Z,1.50
2022-09-11T01:32:18.813Z,1.40
2022-09-11T01:39:04.583Z,1.30
2022-09-11T01:45:49.581Z,1.40
2022-09-11T01:52:43.194Z,1.60
2022-09-11T01:59:33.691Z,1.67
2022-09-11T02:06:22.859Z,1.77
2022-09-11T02:13:13.844Z,1.30
2022-09-11T02:19:59.630Z,1.50
2022-09-11T02:26:50.101Z,1.92
2022-09-11T02:33:37.375Z,1.90
2022-09-11T02:40:47.257Z,1.58
2022-09-11T02:47:41.655Z,1.95
2022-09-11T02:55:10.457Z,2.45
2022-09-11T03:01:55.450Z,2.10
2022-09-11T03:08:41.042Z,2.60
2022-09-11T03:15:23.613Z,2.60
2022-09-11T03:22:07.308Z,2.50
2022-09-11T03:28:50.449Z,2.90
2022-09-11T03:35:33.067Z,2.65
2022-09-11T03:42:15.913Z,2.88
2022-09-11T03:48:59.560Z,3.10
2022-09-11T03:55:42.052Z,3.20
2022-09-11T04:02:24.489Z,2.85
2022-09-11T04:09:09.021Z,3.03
2022-09-11T04:15:51.987Z,3.35
2022-09-11T04:22:34.827Z,3.72
2022-09-11T04:29:18.887Z,3.33
2022-09-11T04:36:10.278Z,3.70
2022-09-11T04:42:52.787Z,3.20
2022-09-11T04:49:35.856Z,4.55
2022-09-11T04:56:22.788Z,4.10
2022-09-11T05:03:05.587Z,4.13
2022-09-11T05:09:48.105Z,4.10
2022-09-11T05:16:34.454Z,4.35
2022-09-11T05:23:16.966Z,3.92
2022-09-11T05:29:59.828Z,4.10
2022-09-11T05:36:43.471Z,3.92
2022-09-11T05:43:26.585Z,4.25
2022-09-11T05:50:09.859Z,4.47
2022-09-11T05:56:52.859Z,4.40
2022-09-11T06:03:39.846Z,4.72
2022-09-11T06:10:23.993Z,4.47
2022-09-11T06:17:06.424Z,4.50
2022-09-11T06:23:50.840Z,4.53
2022-09-11T06:30:34.339Z,4.60
2022-09-11T06:37:16.869Z,4.88
2022-09-11T06:43:59.324Z,4.93
2022-09-11T06:50:43.528Z,4.75
2022-09-11T06:57:28.268Z,5.32
2022-09-11T07:04:11.461Z,5.15
2022-09-11T07:10:54.427Z,5.40
2022-09-11T07:17:37.546Z,5.05
2022-09-11T07:24:22.287Z,4.72
2022-09-11T07:31:17.470Z,7.55
2022-09-11T07:38:03.030Z,5.70
2022-09-11T07:44:48.316Z,5.30
2022-09-11T07:51:31.411Z,5.15
2022-09-11T07:58:18.867Z,5.45
2022-09-11T08:05:02.262Z,5.30
2022-09-11T08:11:48.457Z,4.47
2022-09-11T08:18:35.038Z,5.47
2022-09-11T08:25:18.112Z,5.28
2022-09-11T08:32:02.471Z,4.57
2022-09-11T08:38:47.451Z,4.50
2022-09-11T08:45:35.880Z,5.35
2022-09-11T08:52:20.256Z,5.03
2022-09-11T08:59:31.591Z,5.07
2022-09-11T09:06:44.744Z,4.55
2022-09-11T09:13:51.105Z,4.28
2022-09-11T09:20:38.489Z,3.90
2022-09-11T09:27:42.238Z,4.10
2022-09-11T09:34:31.045Z,3.85
2022-09-11T09:41:27.353Z,3.95
2022-09-11T09:48:11.974Z,3.40
2022-09-11T09:55:06.815Z,4.13
2022-09-11T10:01:51.623Z,3.88
2022-09-11T10:08:37.019Z,3.72
2022-09-11T10:15:22.349Z,3.60
2022-09-11T10:22:26.545Z,4.30
2022-09-11T10:29:19.117Z,5.03
2022-09-11T10:36:05.998Z,4.90
2022-09-11T10:42:50.294Z,4.82
2022-09-11T10:49:33.916Z,5.00
2022-09-11T10:56:17.056Z,4.38
2022-09-11T11:03:11.274Z,5.40
2022-09-11T11:10:21.935Z,4.05
2022-09-11T11:17:15.163Z,4.43
2022-09-11T11:24:03.067Z,4.95
2022-09-11T11:31:09.696Z,4.25
2022-09-11T11:38:27.984Z,4.43
2022-09-11T11:45:24.316Z,4.40
2022-09-11T11:52:24.748Z,4.35
2022-09-11T11:59:20.407Z,4.32
2022-09-11T12:06:04.277Z,3.50
2022-09-11T12:12:52.334Z,4.00
2022-09-11T12:19:34.662Z,3.67
2022-09-11T12:26:27.532Z,3.90
2022-09-11T12:33:51.863Z,4.35
2022-09-11T12:40:48.891Z,4.40
2022-09-11T12:47:38.553Z,3.80
2022-09-11T12:54:33.312Z,4.22
2022-09-11T13:01:21.777Z,3.90
2022-09-11T13:08:14.833Z,4.50
2022-09-11T13:14:58.599Z,4.95
2022-09-11T13:21:41.971Z,4.68
2022-09-11T13:28:27.390Z,4.28
2022-09-11T13:35:16.745Z,4.53
2022-09-11T13:42:05.530Z,4.95
2022-09-11T13:48:51.690Z,4.50
2022-09-11T13:55:34.104Z,4.40
2022-09-11T14:02:34.941Z,4.10
2022-09-11T14:09:21.459Z,4.47
2022-09-11T14:16:19.749Z,4.95
2022-09-11T14:23:05.256Z,3.63
2022-09-11T14:29:53.302Z,3.72
2022-09-11T14:36:40.759Z,4.57
2022-09-11T14:43:31.161Z,3.92
2022-09-11T14:50:13.772Z,3.90
2022-09-11T14:56:56.134Z,4.40
2022-09-11T15:03:39.168Z,4.05
2022-09-11T15:10:21.846Z,4.00
2022-09-11T15:17:06.446Z,4.80
2022-09-11T15:23:49.254Z,4.03
2022-09-11T15:30:31.776Z,3.97
2022-09-11T15:37:16.773Z,3.90
2022-09-11T15:43:59.502Z,4.55
2022-09-11T15:50:42.415Z,4.35
2022-09-11T15:57:25.436Z,4.03
2022-09-11T16:04:10.514Z,4.05
2022-09-11T16:10:53.726Z,4.40
2022-09-11T16:17:36.013Z,6.10
2022-09-11T16:24:18.389Z,4.10
2022-09-11T16:31:00.988Z,4.40
2022-09-11T16:37:44.090Z,4.28
2022-09-11T16:44:27.514Z,3.78
2022-09-11T16:51:11.523Z,4.30
2022-09-11T16:57:54.084Z,4.40
2022-09-11T17:04:36.371Z,4.50
2022-09-11T17:11:21.305Z,4.65
2022-09-11T17:18:04.155Z,4.10
2022-09-11T17:24:46.500Z,4.15
2022-09-11T17:31:29.405Z,4.25
2022-09-11T17:38:11.770Z,4.28
2022-09-11T17:44:54.060Z,5.03
2022-09-11T17:51:36.380Z,4.63
2022-09-11T17:58:18.736Z,5.72
2022-09-11T18:05:01.006Z,5.40
2022-09-11T18:11:46.106Z,5.13
2022-09-11T18:18:28.816Z,5.28
2022-09-11T18:25:11.351Z,5.53
2022-09-11T18:31:54.536Z,5.53
2022-09-11T18:38:37.447Z,5.78
2022-09-11T18:45:20.473Z,6.45
2022-09-11T18:52:03.179Z,5.78
2022-09-11T18:58:48.383Z,5.78
2022-09-11T19:05:31.057Z,6.43
2022-09-11T19:12:15.784Z,6.90
2022-09-11T19:19:00.094Z,5.95
2022-09-11T19:25:43.467Z,6.90
2022-09-11T19:32:25.834Z,6.60
2022-09-11T19:39:08.228Z,6.18
2022-09-11T19:46:06.880Z,6.80
2022-09-11T19:52:49.185Z,6.80
2022-09-11T19:59:32.609Z,6.68
2022-09-11T20:06:17.028Z,7.00
2022-09-11T20:13:00.474Z,7.40
2022-09-11T20:19:44.712Z,6.90
2022-09-11T20:26:30.875Z,7.65
2022-09-11T20:33:13.164Z,7.55
2022-09-11T20:39:55.584Z,8.05
2022-09-11T20:46:38.036Z,8.15
2022-09-11T20:53:24.167Z,8.10
2022-09-11T21:00:08.925Z,8.10
2022-09-11T21:06:53.071Z,7.82
2022-09-11T21:13:38.041Z,7.80
2022-09-11T21:20:21.200Z,8.25
2022-09-11T21:27:04.011Z,8.23
2022-09-11T21:33:46.644Z,8.50
2022-09-11T21:40:29.113Z,9.27
2022-09-11T21:47:11.423Z,9.50
2022-09-11T21:53:58.930Z,10.00
2022-09-11T22:00:43.219Z,9.40
2022-09-11T22:07:25.800Z,9.18
2022-09-11T22:14:08.137Z,8.38
2022-09-11T22:20:50.593Z,8.25
2022-09-11T22:27:33.499Z,8.27
2022-09-11T22:34:15.799Z,8.55
2022-09-11T22:40:58.137Z,8.45
2022-09-11T22:47:40.563Z,8.40
2022-09-11T22:54:23.048Z,8.93
2022-09-11T23:01:08.199Z,8.32
2022-09-11T23:07:52.034Z,8.55
2022-09-11T23:14:35.859Z,8.93
2022-09-11T23:21:18.633Z,8.88
2022-09-11T23:28:01.013Z,9.77
2022-09-11T23:34:43.304Z,10.70
2022-09-11T23:41:26.421Z,9.98
2022-09-11T23:48:08.865Z,10.30
2022-09-11T23:54:51.178Z,10.50
